Startpagina
METAR-TAF:

METAR-TAF

Vliegvelden :

Luchthaven Cần Thơ

Cần Thơ, Vietnam

breedte: 10-05-07N, lengte: 105-42-43E, hoogte: 3 m

Actueel weer

Dit bericht is 25 minuten geleden gemaakt, om 21:30 UTC
Wind 1 kt uit variabele richting
Temperatuur 26°C
Vochtigheid 100%
Druk 1008 hPa
Zicht: 8000 m
Weinig wolken op 1500 ft
Gebroken wolken op 5000 ft

METAR: VVCT 022130Z VRB01KT 8000 FEW015 BKN050 26/26 Q1008 NOSIG

Tijdstip: 04:55 (21:55 UTC)

Verwachting

Dit bericht is 4 uur en het 55 minuten geleden gemaakt, om 17:00 UTC
Verwachting geldig van 02 om 18 UTC tot 03 om 18 UTC
Wind 2 kt uit variabele richting
Zicht 10 km of meer
Verspreide wolken op 1500 ft
Verspreide wolken op 4000 ft
Wijzigt naar
van 03 om 01 UTC tot 03 om 02 UTC
Wind 10 kt uit het zuidzuidwesten
Tijdelijke
van 03 om 06 UTC tot 03 om 11 UTC
Zicht: 5000 m
Gebroken wolken op 1200 ft
Weinig wolken op 1500 ft, Cumulonimbus.
onweer, regen

TAF: VVCT 021700Z 0218/0318 VRB02KT 9999 SCT015 SCT040 BECMG 0301/0302 20010KT TEMPO 0306/0311 5000 TSRA BKN012 FEW015CB

Waarnemingen en weersverwachtingen van meer dan 4000 vliegvelden (METAR en TAF).

De beschikbare stations zijn de gele en rode punten op de kaart.

Ga met uw muis naar het station om de naam te zien.

Klik dan om waarnemingen en weersverwachtingen te zien.

kaart wijzigen: klik op de groene knoppen met een zwart kruis om in te zoomen, op de groene knop met een streepje om uit te zoomen of op de groene pijlen voor aangrenzende kaarten.


METAR-TAF: